Terminal Aerodrome Forecast
Issued by NWS Bismarck, ND

Home | Current Version | Previous Version | Text Only | Print | Product List | Glossary On
Versions: 1 2 3 4 5 6 7 8 9 10 11 12 13 14 15 16 17
000
FTUS43 KBIS 222110 AAA
TAFISN
TAF AMD
KISN 222110Z 2221/2318 30015G22KT P6SM FEW080
     FM230100 36012KT P6SM SKC
     FM230400 02007KT P6SM SKC
     FM230800 10004KT P6SM SKC
     FM231400 16004KT P6SM FEW070 FEW250=

USA.gov is the U.S. government's official web portal to all federal, state and local government web resources and services.